createdAt,value
2024-02-29T00:02:32.064Z,21.77
2024-02-29T00:07:53.782Z,20.95
2024-02-29T00:13:15.566Z,22.48
2024-02-29T00:18:37.452Z,22.67
2024-02-29T00:23:59.227Z,20.45
2024-02-29T00:29:20.986Z,19.27
2024-02-29T00:34:42.824Z,17.80
2024-02-29T00:40:05.077Z,16.60
2024-02-29T00:45:26.927Z,14.93
2024-02-29T00:50:48.889Z,16.40
2024-02-29T00:56:10.959Z,15.68
2024-02-29T01:01:32.844Z,16.25
2024-02-29T01:06:54.776Z,15.57
2024-02-29T01:12:16.574Z,18.95
2024-02-29T01:17:38.856Z,17.02
2024-02-29T01:23:01.052Z,16.20
2024-02-29T01:28:22.827Z,15.25
2024-02-29T01:33:44.849Z,34.00
2024-02-29T01:39:06.690Z,14.82
2024-02-29T01:44:28.974Z,14.93
2024-02-29T01:49:51.557Z,16.35
2024-02-29T01:55:13.934Z,15.73
2024-02-29T02:00:35.744Z,15.48
2024-02-29T02:05:57.476Z,13.65
2024-02-29T02:11:19.349Z,13.88
2024-02-29T02:16:41.821Z,14.60
2024-02-29T02:22:03.750Z,12.88
2024-02-29T02:27:25.579Z,13.52
2024-02-29T02:32:47.424Z,14.77
2024-02-29T02:38:09.225Z,15.30
2024-02-29T02:43:30.955Z,17.85
2024-02-29T02:48:52.741Z,19.58
2024-02-29T02:54:14.606Z,21.52
2024-02-29T02:59:36.409Z,21.48
2024-02-29T03:04:58.358Z,21.45
2024-02-29T03:10:20.242Z,23.00
2024-02-29T03:15:42.033Z,24.77
2024-02-29T03:21:04.930Z,26.58
2024-02-29T03:26:26.755Z,23.92
2024-02-29T03:31:48.571Z,24.42
2024-02-29T03:37:10.406Z,25.83
2024-02-29T03:42:33.072Z,27.13
2024-02-29T03:47:54.919Z,25.27
2024-02-29T03:53:16.725Z,26.30
2024-02-29T03:58:38.515Z,26.08
2024-02-29T04:04:00.401Z,28.35
2024-02-29T04:09:22.199Z,24.50
2024-02-29T04:14:43.943Z,28.08
2024-02-29T04:20:06.445Z,26.80
2024-02-29T04:25:28.191Z,24.73
2024-02-29T04:30:50.041Z,21.73
2024-02-29T04:36:11.926Z,18.33
2024-02-29T04:41:33.690Z,16.90
2024-02-29T04:46:55.445Z,15.20
2024-02-29T04:52:17.539Z,16.88
2024-02-29T04:57:39.395Z,15.25
2024-02-29T05:03:01.223Z,13.75
2024-02-29T05:08:22.997Z,15.07
2024-02-29T05:13:44.760Z,12.68
2024-02-29T05:19:06.544Z,13.77
2024-02-29T05:24:28.303Z,14.52
2024-02-29T05:29:50.051Z,13.85
2024-02-29T05:35:11.830Z,12.75
2024-02-29T05:40:33.692Z,12.98
2024-02-29T05:45:55.481Z,15.43
2024-02-29T05:51:17.259Z,15.35
2024-02-29T05:56:38.994Z,15.05
2024-02-29T06:02:00.921Z,14.88
2024-02-29T06:07:22.920Z,14.63
2024-02-29T06:12:44.716Z,15.50
2024-02-29T06:18:06.650Z,19.27
2024-02-29T06:23:28.453Z,17.88
2024-02-29T06:28:50.186Z,16.17
2024-02-29T06:34:11.960Z,17.20
2024-02-29T06:39:34.437Z,17.38
2024-02-29T06:44:56.268Z,16.65
2024-02-29T06:50:18.118Z,22.00
